createdAt,value
2022-11-30T00:01:56.529Z,5.20
2022-11-30T00:04:26.398Z,5.00
2022-11-30T00:06:57.264Z,5.00
2022-11-30T00:09:26.096Z,5.20
2022-11-30T00:11:54.125Z,5.20
2022-11-30T00:14:22.106Z,5.10
2022-11-30T00:16:50.275Z,5.10
2022-11-30T00:19:18.368Z,4.90
2022-11-30T00:21:48.035Z,5.00
2022-11-30T00:24:16.129Z,5.00
2022-11-30T00:26:44.198Z,5.00
2022-11-30T00:29:12.986Z,5.00
2022-11-30T00:31:41.015Z,5.00
2022-11-30T00:34:09.019Z,5.00
2022-11-30T00:36:37.278Z,5.10
2022-11-30T00:39:06.808Z,5.10
2022-11-30T00:41:35.212Z,5.20
2022-11-30T00:44:03.206Z,5.30
2022-11-30T00:46:31.204Z,5.20
2022-11-30T00:48:59.361Z,5.30
2022-11-30T00:51:27.378Z,5.50
2022-11-30T00:53:55.579Z,5.50
2022-11-30T00:56:25.223Z,5.40
2022-11-30T00:58:53.288Z,5.50
2022-11-30T01:01:21.401Z,5.50
2022-11-30T01:03:49.453Z,5.60
2022-11-30T01:06:17.521Z,5.70
2022-11-30T01:08:45.590Z,5.70
2022-11-30T01:11:17.489Z,5.50
2022-11-30T01:13:46.841Z,5.60
2022-11-30T01:16:17.668Z,5.50
2022-11-30T01:18:46.308Z,5.40
2022-11-30T01:21:16.445Z,5.30
2022-11-30T01:23:44.443Z,5.30
2022-11-30T01:26:13.440Z,5.30
2022-11-30T01:28:44.039Z,5.30
2022-11-30T01:31:14.895Z,5.50
2022-11-30T01:33:43.189Z,5.40
2022-11-30T01:36:13.918Z,5.30
2022-11-30T01:38:44.493Z,5.20
2022-11-30T01:41:15.668Z,5.30
2022-11-30T01:43:45.629Z,5.20
2022-11-30T01:46:31.867Z,5.20
2022-11-30T01:49:06.138Z,5.20
2022-11-30T01:51:40.287Z,5.30
2022-11-30T01:54:13.412Z,5.30
2022-11-30T01:56:44.681Z,5.30
2022-11-30T01:59:13.378Z,5.30
2022-11-30T02:01:43.204Z,5.20
2022-11-30T02:04:16.736Z,5.20
2022-11-30T02:06:45.386Z,5.30
2022-11-30T02:09:16.126Z,5.30
2022-11-30T02:11:44.197Z,5.40
2022-11-30T02:14:35.050Z,5.60
2022-11-30T02:17:27.117Z,5.40
2022-11-30T02:20:25.042Z,5.40
2022-11-30T02:23:15.974Z,5.40
2022-11-30T02:25:52.583Z,5.40
2022-11-30T02:28:46.921Z,5.20
2022-11-30T02:31:21.194Z,5.40
2022-11-30T02:33:52.527Z,5.40
2022-11-30T02:36:22.626Z,5.50
2022-11-30T02:38:52.949Z,5.30
2022-11-30T02:41:21.007Z,5.30
2022-11-30T02:43:49.114Z,5.40
2022-11-30T02:46:24.329Z,5.20
2022-11-30T02:48:58.743Z,5.20
2022-11-30T02:51:29.669Z,5.10
2022-11-30T02:53:58.154Z,5.20
2022-11-30T02:56:27.233Z,5.30
2022-11-30T02:58:55.260Z,5.40
2022-11-30T03:01:24.666Z,5.40
2022-11-30T03:03:52.876Z,5.60
2022-11-30T03:06:20.894Z,5.40
2022-11-30T03:08:48.898Z,5.50
2022-11-30T03:11:17.333Z,5.50
2022-11-30T03:13:45.351Z,5.30
2022-11-30T03:16:15.098Z,5.30
2022-11-30T03:18:44.492Z,5.20
2022-11-30T03:21:13.489Z,5.20
2022-11-30T03:23:41.699Z,5.20
2022-11-30T03:26:10.432Z,5.30
2022-11-30T03:28:39.156Z,5.50
2022-11-30T03:31:07.574Z,5.60
2022-11-30T03:33:36.008Z,5.60
2022-11-30T03:36:08.363Z,5.50
2022-11-30T03:38:37.006Z,5.50
2022-11-30T03:41:07.058Z,5.40
2022-11-30T03:43:35.466Z,5.30
2022-11-30T03:46:04.059Z,5.40
2022-11-30T03:48:32.243Z,5.40
2022-11-30T03:51:00.713Z,5.40
2022-11-30T03:53:30.353Z,5.50
2022-11-30T03:56:00.305Z,5.60
2022-11-30T03:58:29.396Z,5.50
2022-11-30T04:01:04.980Z,5.50
2022-11-30T04:03:33.302Z,5.40
2022-11-30T04:06:01.694Z,5.60
2022-11-30T04:08:32.306Z,5.50
2022-11-30T04:11:02.720Z,5.60
2022-11-30T04:13:32.136Z,5.50
2022-11-30T04:16:00.691Z,5.60
2022-11-30T04:18:31.213Z,5.60
2022-11-30T04:21:01.217Z,5.70
2022-11-30T04:23:33.856Z,5.80
2022-11-30T04:26:03.604Z,5.60
2022-11-30T04:28:31.740Z,5.50
2022-11-30T04:31:00.456Z,5.40
2022-11-30T04:33:29.711Z,5.50
2022-11-30T04:35:59.560Z,5.40
2022-11-30T04:38:28.248Z,5.50
2022-11-30T04:40:57.803Z,5.50
2022-11-30T04:43:26.687Z,5.60
2022-11-30T04:45:54.687Z,5.70
2022-11-30T04:48:22.709Z,5.60
2022-11-30T04:50:50.813Z,5.60
2022-11-30T04:53:18.972Z,5.60
2022-11-30T04:55:47.174Z,5.70
2022-11-30T04:58:16.760Z,5.60
2022-11-30T05:00:44.915Z,5.60
2022-11-30T05:03:12.920Z,5.80
2022-11-30T05:05:40.986Z,5.80
2022-11-30T05:08:10.339Z,5.90
2022-11-30T05:10:38.457Z,5.70
2022-11-30T05:13:06.462Z,5.70
2022-11-30T05:15:35.838Z,5.80
2022-11-30T05:18:04.322Z,5.80
2022-11-30T05:20:32.411Z,5.60
2022-11-30T05:23:00.682Z,5.50
2022-11-30T05:25:28.724Z,5.60
2022-11-30T05:27:56.707Z,5.60
2022-11-30T05:30:25.312Z,5.60
2022-11-30T05:32:55.484Z,5.50
2022-11-30T05:35:23.548Z,5.60
2022-11-30T05:37:51.589Z,5.60
2022-11-30T05:40:19.609Z,5.60
2022-11-30T05:42:47.719Z,5.60
2022-11-30T05:45:15.801Z,5.70
2022-11-30T05:47:44.115Z,5.70
2022-11-30T05:50:13.596Z,5.60
2022-11-30T05:52:41.806Z,5.70
2022-11-30T05:55:10.142Z,5.50
2022-11-30T05:57:38.620Z,5.40
2022-11-30T06:00:08.958Z,5.60
2022-11-30T06:02:37.112Z,5.70
2022-11-30T06:05:05.947Z,5.60
2022-11-30T06:07:35.368Z,5.80
2022-11-30T06:10:03.393Z,5.90
2022-11-30T06:12:31.722Z,5.80
2022-11-30T06:14:59.777Z,5.70
2022-11-30T06:17:28.093Z,5.40
2022-11-30T06:19:56.326Z,5.60
2022-11-30T06:22:24.377Z,5.50
2022-11-30T06:24:54.017Z,5.60
2022-11-30T06:27:22.046Z,5.50
2022-11-30T06:29:50.272Z,5.50
2022-11-30T06:32:18.630Z,5.60
2022-11-30T06:34:46.973Z,5.60
2022-11-30T06:37:15.185Z,5.60
2022-11-30T06:40:05.352Z,5.50
2022-11-30T06:42:33.730Z,5.50
2022-11-30T06:45:01.730Z,5.60
2022-11-30T06:47:29.823Z,5.50
2022-11-30T06:49:58.125Z,5.50
2022-11-30T06:52:26.217Z,5.40
2022-11-30T06:54:54.241Z,5.30
2022-11-30T06:57:22.740Z,5.40
2022-11-30T06:59:52.085Z,5.50
2022-11-30T07:02:20.212Z,5.40
2022-11-30T07:04:48.924Z,5.30
2022-11-30T07:07:17.568Z,5.30
2022-11-30T07:09:45.605Z,5.40
2022-11-30T07:12:13.806Z,5.30
2022-11-30T07:14:41.824Z,5.40
2022-11-30T07:17:11.224Z,5.40
2022-11-30T07:19:39.224Z,5.40
2022-11-30T07:22:07.538Z,5.50
2022-11-30T07:24:53.246Z,5.40
2022-11-30T07:27:21.535Z,5.30
2022-11-30T07:29:51.551Z,5.50
2022-11-30T07:32:21.568Z,5.60
2022-11-30T07:34:50.280Z,5.60
2022-11-30T07:37:19.247Z,5.50
2022-11-30T07:39:47.264Z,5.50
2022-11-30T07:42:17.365Z,5.40
2022-11-30T07:44:45.725Z,5.50
2022-11-30T07:47:14.414Z,5.30
2022-11-30T07:49:43.821Z,5.40
2022-11-30T07:52:12.207Z,5.40
2022-11-30T07:54:40.289Z,5.40
2022-11-30T07:57:08.276Z,5.60
2022-11-30T07:59:36.352Z,5.50
2022-11-30T08:02:04.449Z,5.60
2022-11-30T08:04:32.917Z,5.60
2022-11-30T08:07:02.381Z,5.50
2022-11-30T08:09:30.696Z,5.50
2022-11-30T08:11:59.081Z,5.40
2022-11-30T08:14:27.081Z,5.30
2022-11-30T08:16:55.206Z,5.30
2022-11-30T08:19:23.216Z,5.30
2022-11-30T08:21:51.385Z,5.40
2022-11-30T08:24:21.275Z,5.40
2022-11-30T08:26:52.997Z,5.50
2022-11-30T08:29:21.106Z,5.50
2022-11-30T08:31:49.494Z,5.50
2022-11-30T08:34:17.986Z,5.70
2022-11-30T08:36:47.277Z,5.60
2022-11-30T08:39:21.218Z,5.70
2022-11-30T08:41:49.267Z,5.70
2022-11-30T08:44:17.314Z,5.60
2022-11-30T08:46:53.027Z,5.60
2022-11-30T08:49:23.752Z,5.60
2022-11-30T08:52:16.860Z,5.70
2022-11-30T08:54:46.648Z,5.80
2022-11-30T08:57:15.978Z,5.60
2022-11-30T08:59:44.105Z,5.60
2022-11-30T09:02:13.967Z,5.70
2022-11-30T09:04:42.130Z,5.70
2022-11-30T09:07:10.217Z,5.50
2022-11-30T09:09:38.357Z,5.60
2022-11-30T09:12:08.927Z,5.70
2022-11-30T09:14:36.982Z,5.60
2022-11-30T09:17:05.658Z,5.60
2022-11-30T09:19:33.710Z,5.60
2022-11-30T09:22:01.707Z,5.70
2022-11-30T09:24:30.118Z,5.60
2022-11-30T09:26:58.159Z,5.70
2022-11-30T09:29:27.817Z,5.50
2022-11-30T09:31:55.846Z,5.50
2022-11-30T09:34:23.832Z,5.60
2022-11-30T09:36:52.242Z,5.50
2022-11-30T09:39:20.269Z,5.60
2022-11-30T09:42:15.485Z,5.50
2022-11-30T09:44:52.952Z,5.40
2022-11-30T09:47:37.220Z,5.50
2022-11-30T09:50:11.655Z,5.30
2022-11-30T09:52:44.621Z,5.40
2022-11-30T09:55:18.033Z,5.40
2022-11-30T09:57:49.833Z,5.40
2022-11-30T10:00:21.872Z,5.40
2022-11-30T10:02:51.735Z,5.50
2022-11-30T10:05:22.912Z,5.40
2022-11-30T10:08:18.132Z,5.50
2022-11-30T10:10:53.504Z,5.50
2022-11-30T10:13:32.920Z,5.40
2022-11-30T10:16:13.108Z,5.50
2022-11-30T10:18:50.113Z,5.30
2022-11-30T10:21:31.076Z,5.40
2022-11-30T10:24:16.328Z,5.40
2022-11-30T10:26:53.673Z,5.40
2022-11-30T10:29:26.611Z,5.30
2022-11-30T10:31:59.433Z,5.30
2022-11-30T10:34:32.361Z,5.40
2022-11-30T10:37:05.085Z,5.40
2022-11-30T10:39:37.517Z,5.40
2022-11-30T10:42:10.197Z,5.30
2022-11-30T10:44:41.658Z,5.40
2022-11-30T10:47:17.151Z,5.40
2022-11-30T10:49:50.257Z,5.30
2022-11-30T10:52:23.208Z,5.30
2022-11-30T10:54:56.866Z,5.30
2022-11-30T10:57:32.266Z,5.30
2022-11-30T11:00:03.629Z,5.30
2022-11-30T11:02:39.973Z,5.30
2022-11-30T11:05:19.716Z,5.30
2022-11-30T11:07:59.830Z,5.30
2022-11-30T11:10:35.090Z,5.30
2022-11-30T11:13:03.483Z,5.40
2022-11-30T11:15:33.511Z,5.50
2022-11-30T11:18:23.628Z,5.40
2022-11-30T11:21:05.886Z,5.30
2022-11-30T11:23:37.572Z,5.30
2022-11-30T11:26:06.889Z,5.30
2022-11-30T11:28:37.090Z,5.30
2022-11-30T11:31:19.631Z,5.30
2022-11-30T11:33:54.312Z,5.30
2022-11-30T11:36:28.767Z,5.20
2022-11-30T11:38:57.404Z,5.20
2022-11-30T11:41:28.678Z,5.30
2022-11-30T11:44:03.434Z,5.30
2022-11-30T11:46:33.188Z,5.30
2022-11-30T11:49:05.659Z,5.30
2022-11-30T11:51:36.032Z,5.30
2022-11-30T11:54:14.050Z,5.20
2022-11-30T11:56:42.662Z,5.30
2022-11-30T11:59:18.857Z,5.20
2022-11-30T12:01:54.088Z,5.30
2022-11-30T12:04:43.823Z,5.30
2022-11-30T12:07:22.111Z,5.20
2022-11-30T12:10:16.515Z,5.30
2022-11-30T12:12:54.628Z,5.40
2022-11-30T12:15:29.711Z,5.40
2022-11-30T12:18:06.636Z,5.30
2022-11-30T12:20:49.482Z,5.50
2022-11-30T12:23:32.272Z,5.50
2022-11-30T12:26:08.909Z,5.40
2022-11-30T12:28:47.124Z,5.30
2022-11-30T12:31:18.104Z,5.40
2022-11-30T12:34:02.788Z,5.40
2022-11-30T12:36:44.348Z,5.50
2022-11-30T12:39:22.485Z,5.50
2022-11-30T12:41:53.407Z,5.40
2022-11-30T12:44:42.538Z,5.50
2022-11-30T12:47:23.406Z,5.40
2022-11-30T12:50:04.028Z,5.40
2022-11-30T12:52:41.537Z,5.70
2022-11-30T12:55:26.146Z,5.60
2022-11-30T12:58:02.348Z,5.50
2022-11-30T13:00:36.895Z,5.60
2022-11-30T13:03:24.609Z,5.50
2022-11-30T13:05:58.639Z,5.50
2022-11-30T13:08:34.725Z,5.40
2022-11-30T13:11:08.052Z,5.60
2022-11-30T13:13:38.142Z,5.60
2022-11-30T13:16:09.642Z,5.60
2022-11-30T13:18:38.305Z,5.70
2022-11-30T13:21:11.027Z,5.80
2022-11-30T13:23:45.814Z,5.70
2022-11-30T13:26:24.925Z,5.70
2022-11-30T13:29:04.887Z,5.50
2022-11-30T13:31:39.210Z,5.50
2022-11-30T13:34:24.767Z,5.40
2022-11-30T13:36:53.290Z,5.60
2022-11-30T13:39:26.919Z,5.50
2022-11-30T13:42:27.366Z,5.50
2022-11-30T13:44:56.445Z,5.40
2022-11-30T13:47:31.520Z,5.40
2022-11-30T13:50:02.066Z,5.50
2022-11-30T13:53:33.926Z,5.40
2022-11-30T13:56:22.695Z,5.50
2022-11-30T13:59:40.782Z,5.50
2022-11-30T14:03:00.547Z,5.50
2022-11-30T14:05:40.266Z,5.40
2022-11-30T14:08:31.457Z,5.30
2022-11-30T14:11:44.319Z,5.40
2022-11-30T14:14:45.967Z,5.50
2022-11-30T14:17:27.586Z,5.60
2022-11-30T14:19:59.241Z,5.50
2022-11-30T14:22:28.565Z,5.50
2022-11-30T14:24:57.501Z,5.60
2022-11-30T14:27:28.485Z,5.60
2022-11-30T14:30:03.030Z,5.50
2022-11-30T14:32:37.842Z,5.30
2022-11-30T14:35:11.612Z,5.20
2022-11-30T14:37:44.821Z,5.20
2022-11-30T14:40:19.987Z,5.30
2022-11-30T14:42:50.163Z,5.40
2022-11-30T14:45:25.749Z,5.20
2022-11-30T14:48:04.661Z,5.20
2022-11-30T14:50:33.758Z,5.20
2022-11-30T14:53:16.931Z,5.10
2022-11-30T14:55:52.224Z,5.00
2022-11-30T14:58:28.098Z,5.00
2022-11-30T15:00:57.721Z,5.00
2022-11-30T15:03:28.393Z,5.20
2022-11-30T15:05:58.657Z,5.20
2022-11-30T15:08:33.328Z,5.20
2022-11-30T15:11:06.204Z,5.30
2022-11-30T15:13:35.400Z,5.10
2022-11-30T15:16:10.728Z,5.10
2022-11-30T15:18:40.605Z,5.20
2022-11-30T15:21:15.875Z,5.20
2022-11-30T15:23:49.414Z,5.00
2022-11-30T15:26:23.918Z,5.10
2022-11-30T15:28:57.217Z,5.30
2022-11-30T15:31:33.926Z,5.20
2022-11-30T15:34:02.180Z,5.30
2022-11-30T15:36:35.713Z,5.10
2022-11-30T15:39:07.003Z,5.00
2022-11-30T15:41:36.370Z,5.00
2022-11-30T15:44:04.870Z,5.00
2022-11-30T15:46:41.191Z,5.00
2022-11-30T15:49:18.728Z,5.00
2022-11-30T15:51:54.500Z,5.00
2022-11-30T15:54:43.918Z,4.90
2022-11-30T15:57:12.350Z,4.80
2022-11-30T15:59:40.488Z,4.80
2022-11-30T16:02:27.329Z,4.80
2022-11-30T16:05:13.605Z,4.80
2022-11-30T16:07:51.793Z,4.80
2022-11-30T16:10:22.639Z,5.00
2022-11-30T16:12:52.397Z,5.30
2022-11-30T16:15:23.352Z,5.00
2022-11-30T16:17:53.969Z,4.90
2022-11-30T16:20:22.039Z,5.00
2022-11-30T16:22:50.546Z,4.90
2022-11-30T16:25:21.633Z,5.00
2022-11-30T16:27:50.836Z,5.00
2022-11-30T16:30:20.481Z,4.90
2022-11-30T16:32:48.949Z,5.00
2022-11-30T16:35:24.309Z,4.80
2022-11-30T16:37:53.014Z,4.90
2022-11-30T16:40:21.374Z,4.90
2022-11-30T16:42:50.924Z,4.90
2022-11-30T16:45:21.607Z,4.90
2022-11-30T16:47:50.299Z,4.90
2022-11-30T16:50:19.229Z,4.80
2022-11-30T16:52:48.800Z,5.00
2022-11-30T16:55:19.125Z,5.10
2022-11-30T16:57:48.437Z,4.90
2022-11-30T17:00:19.123Z,4.90
2022-11-30T17:02:56.360Z,4.90
2022-11-30T17:05:25.236Z,4.90
2022-11-30T17:07:55.274Z,5.00
2022-11-30T17:10:23.715Z,4.90
2022-11-30T17:12:52.156Z,5.00
2022-11-30T17:15:22.646Z,5.10
2022-11-30T17:17:51.307Z,5.10
2022-11-30T17:20:19.814Z,5.20
2022-11-30T17:22:47.841Z,5.10
2022-11-30T17:25:21.852Z,5.20
2022-11-30T17:27:51.367Z,5.10
2022-11-30T17:30:21.138Z,5.00
2022-11-30T17:32:50.624Z,5.00
2022-11-30T17:35:18.924Z,5.10
2022-11-30T17:37:47.196Z,4.90
2022-11-30T17:40:17.101Z,4.80
2022-11-30T17:42:45.246Z,4.80
2022-11-30T17:45:13.231Z,4.80
2022-11-30T17:47:41.262Z,4.80
2022-11-30T17:50:10.576Z,4.70
2022-11-30T17:52:38.893Z,4.80
2022-11-30T17:55:07.964Z,4.60
2022-11-30T17:57:38.548Z,4.80
2022-11-30T18:00:08.308Z,5.00
2022-11-30T18:02:36.386Z,4.90
2022-11-30T18:05:04.524Z,4.80
2022-11-30T18:07:32.557Z,4.90
2022-11-30T18:10:01.844Z,5.00
2022-11-30T18:12:29.828Z,5.00
2022-11-30T18:14:59.172Z,4.80
2022-11-30T18:17:27.194Z,4.70
2022-11-30T18:19:55.200Z,4.70
2022-11-30T18:22:23.228Z,4.70
2022-11-30T18:24:51.462Z,4.70
2022-11-30T18:27:19.523Z,4.70
2022-11-30T18:29:47.610Z,4.80
2022-11-30T18:32:16.983Z,4.70
2022-11-30T18:34:49.648Z,4.70
2022-11-30T18:37:18.011Z,4.60
2022-11-30T18:39:46.068Z,4.60
2022-11-30T18:42:14.050Z,4.80
2022-11-30T18:44:42.089Z,4.80
2022-11-30T18:47:10.732Z,4.80
2022-11-30T18:49:40.191Z,4.90
2022-11-30T18:52:08.227Z,4.80
2022-11-30T18:54:36.425Z,4.70
2022-11-30T18:57:04.553Z,4.80
2022-11-30T18:59:32.528Z,5.00
2022-11-30T19:02:00.684Z,5.00
2022-11-30T19:04:28.800Z,5.10
2022-11-30T19:06:58.221Z,5.10
2022-11-30T19:09:26.305Z,5.20
2022-11-30T19:11:54.419Z,5.10
2022-11-30T19:14:22.526Z,5.10
2022-11-30T19:16:52.043Z,5.00
2022-11-30T19:19:21.703Z,4.80
2022-11-30T19:21:49.751Z,4.90
2022-11-30T19:24:20.227Z,5.00
2022-11-30T19:26:48.639Z,4.90
2022-11-30T19:29:17.987Z,4.90
2022-11-30T19:31:46.125Z,5.00
2022-11-30T19:34:14.208Z,4.90
2022-11-30T19:36:42.668Z,4.90
2022-11-30T19:39:11.424Z,4.60
2022-11-30T19:41:41.061Z,4.80
2022-11-30T19:44:14.840Z,4.70
2022-11-30T19:46:43.409Z,4.80
2022-11-30T19:49:12.255Z,4.90
2022-11-30T19:51:40.503Z,4.90
2022-11-30T19:54:08.644Z,4.80
2022-11-30T19:56:38.945Z,4.70
2022-11-30T19:59:08.387Z,4.70
2022-11-30T20:01:36.682Z,4.70
2022-11-30T20:04:05.960Z,4.70
2022-11-30T20:06:35.885Z,4.70
2022-11-30T20:09:04.803Z,4.70
2022-11-30T20:11:33.859Z,4.60
2022-11-30T20:14:01.961Z,4.60
2022-11-30T20:16:32.824Z,4.60
2022-11-30T20:19:02.667Z,4.60
2022-11-30T20:21:32.875Z,4.60
2022-11-30T20:24:02.982Z,4.60
2022-11-30T20:26:32.815Z,4.70
2022-11-30T20:29:03.033Z,4.70
2022-11-30T20:31:34.675Z,4.50
2022-11-30T20:34:03.265Z,4.60
2022-11-30T20:36:31.394Z,4.50
2022-11-30T20:38:59.717Z,4.50
2022-11-30T20:41:28.690Z,4.60
2022-11-30T20:43:57.190Z,4.60
2022-11-30T20:46:27.269Z,4.70
2022-11-30T20:48:57.564Z,4.50
2022-11-30T20:51:32.048Z,4.50
2022-11-30T20:54:01.967Z,4.50
2022-11-30T20:56:30.132Z,4.50
2022-11-30T20:59:02.190Z,4.50
2022-11-30T21:01:30.662Z,4.60
2022-11-30T21:04:00.982Z,4.50
2022-11-30T21:06:30.016Z,5.60
2022-11-30T21:08:58.477Z,6.40
2022-11-30T21:11:27.698Z,5.90
2022-11-30T21:13:56.285Z,5.10
2022-11-30T21:16:28.628Z,4.60
2022-11-30T21:18:59.725Z,4.40
2022-11-30T21:21:30.779Z,4.30
2022-11-30T21:24:00.703Z,4.30
2022-11-30T21:26:30.842Z,4.20
2022-11-30T21:29:01.540Z,4.20
2022-11-30T21:31:29.981Z,4.30
2022-11-30T21:34:00.304Z,4.20
2022-11-30T21:36:28.707Z,4.20
2022-11-30T21:39:04.561Z,4.20
2022-11-30T21:41:33.695Z,4.30
2022-11-30T21:44:01.782Z,4.10
2022-11-30T21:46:30.004Z,4.20
2022-11-30T21:48:59.642Z,4.10
2022-11-30T21:51:29.270Z,4.20
2022-11-30T21:53:59.151Z,4.30
2022-11-30T21:56:29.499Z,4.20
2022-11-30T21:58:58.328Z,4.10
2022-11-30T22:01:29.204Z,4.20
2022-11-30T22:04:00.103Z,4.10
2022-11-30T22:06:30.617Z,4.10
2022-11-30T22:09:03.672Z,4.20
2022-11-30T22:11:32.335Z,4.00
2022-11-30T22:14:00.326Z,4.10
2022-11-30T22:16:35.667Z,4.00
2022-11-30T22:19:07.287Z,3.90
2022-11-30T22:21:36.141Z,3.90
2022-11-30T22:24:06.292Z,3.80
2022-11-30T22:26:36.131Z,3.70
2022-11-30T22:29:06.383Z,3.80
2022-11-30T22:31:37.515Z,3.80
2022-11-30T22:34:07.874Z,3.80
2022-11-30T22:36:38.069Z,3.60
2022-11-30T22:39:09.321Z,3.40
2022-11-30T22:41:37.712Z,3.50
2022-11-30T22:44:06.150Z,3.50
2022-11-30T22:46:36.810Z,3.40
2022-11-30T22:49:09.335Z,3.30
2022-11-30T22:51:38.606Z,3.30
2022-11-30T22:54:07.490Z,3.40
2022-11-30T22:56:37.935Z,3.40
2022-11-30T22:59:06.747Z,3.30
2022-11-30T23:01:36.908Z,3.30
2022-11-30T23:04:09.483Z,3.20
2022-11-30T23:06:38.832Z,3.20
2022-11-30T23:09:08.607Z,3.10
2022-11-30T23:11:36.607Z,3.10
2022-11-30T23:14:06.507Z,3.00
2022-11-30T23:16:34.567Z,2.90
2022-11-30T23:19:02.685Z,2.90
2022-11-30T23:21:39.061Z,2.90
2022-11-30T23:24:13.900Z,2.90
2022-11-30T23:26:43.659Z,2.80
2022-11-30T23:29:13.451Z,2.80
2022-11-30T23:31:42.946Z,2.80
2022-11-30T23:34:13.637Z,2.80
2022-11-30T23:36:43.024Z,2.80
2022-11-30T23:39:13.243Z,2.70
2022-11-30T23:41:41.835Z,2.70
2022-11-30T23:44:10.651Z,2.70
2022-11-30T23:46:39.589Z,2.70
2022-11-30T23:49:08.193Z,2.60
2022-11-30T23:51:36.378Z,2.70
2022-11-30T23:54:06.357Z,2.70
2022-11-30T23:56:34.733Z,2.60
2022-11-30T23:59:02.709Z,2.60
